createdAt,value
2023-02-13T00:00:33.148Z,62.74
2023-02-13T00:03:00.314Z,62.55
2023-02-13T00:05:27.359Z,62.74
2023-02-13T00:07:54.264Z,62.91
2023-02-13T00:10:21.146Z,63.34
2023-02-13T00:12:48.073Z,63.74
2023-02-13T00:15:15.047Z,63.84
2023-02-13T00:17:42.159Z,63.82
2023-02-13T00:20:11.581Z,64.67
2023-02-13T00:22:39.150Z,63.81
2023-02-13T00:25:07.142Z,63.60
2023-02-13T00:27:34.286Z,63.68
2023-02-13T00:30:02.587Z,64.00
2023-02-13T00:32:29.577Z,64.03
2023-02-13T00:34:56.456Z,63.95
2023-02-13T00:37:23.440Z,63.32
2023-02-13T00:39:52.243Z,63.21
2023-02-13T00:42:19.470Z,63.58
2023-02-13T00:44:46.386Z,63.85
2023-02-13T00:47:13.286Z,63.57
2023-02-13T00:49:40.562Z,62.92
2023-02-13T00:52:07.804Z,62.99
2023-02-13T00:54:34.754Z,63.20
2023-02-13T00:57:01.832Z,63.85
2023-02-13T00:59:28.954Z,63.56
2023-02-13T01:01:55.948Z,64.07
2023-02-13T01:04:22.951Z,62.70
2023-02-13T01:06:49.874Z,63.39
2023-02-13T01:09:16.865Z,63.41
2023-02-13T01:11:43.775Z,63.97
2023-02-13T01:14:10.721Z,63.77
2023-02-13T01:16:37.719Z,63.45
2023-02-13T01:19:05.002Z,64.06
2023-02-13T01:21:32.043Z,63.46
2023-02-13T01:24:02.726Z,62.99
2023-02-13T01:26:29.630Z,62.97
2023-02-13T01:28:56.668Z,62.87
2023-02-13T01:31:23.980Z,63.47
2023-02-13T01:33:51.948Z,63.64
2023-02-13T01:36:22.025Z,64.10
2023-02-13T01:38:49.006Z,63.43
2023-02-13T01:41:15.943Z,64.46
2023-02-13T01:43:55.832Z,63.63
2023-02-13T01:46:38.775Z,63.14
2023-02-13T01:49:11.699Z,63.67
2023-02-13T01:51:40.446Z,63.40
2023-02-13T01:54:24.228Z,62.45
2023-02-13T01:57:12.605Z,61.91
2023-02-13T01:59:55.230Z,62.29
2023-02-13T02:02:23.127Z,61.44
2023-02-13T02:04:51.316Z,61.66
2023-02-13T02:07:26.678Z,61.87
2023-02-13T02:10:00.798Z,61.13
2023-02-13T02:12:42.926Z,61.52
2023-02-13T02:15:12.855Z,60.63
2023-02-13T02:17:39.871Z,60.90
2023-02-13T02:20:37.786Z,61.26
2023-02-13T02:23:46.507Z,60.43
2023-02-13T02:26:44.287Z,59.86
2023-02-13T02:29:17.241Z,60.21
2023-02-13T02:31:53.242Z,60.33
2023-02-13T02:35:28.028Z,60.63
2023-02-13T02:38:03.163Z,59.98
2023-02-13T02:40:36.180Z,60.43
2023-02-13T02:43:32.155Z,59.78
2023-02-13T02:46:28.012Z,60.19
2023-02-13T02:49:04.236Z,59.54
2023-02-13T02:51:38.591Z,60.42
2023-02-13T02:54:35.106Z,59.81
2023-02-13T02:57:15.435Z,59.81
2023-02-13T02:59:46.057Z,59.62
2023-02-13T03:02:15.495Z,60.38
2023-02-13T03:04:53.273Z,59.54
2023-02-13T03:07:20.343Z,60.16
2023-02-13T03:10:12.787Z,59.52
2023-02-13T03:12:54.907Z,59.59
2023-02-13T03:15:24.446Z,59.48
2023-02-13T03:17:51.530Z,59.47
2023-02-13T03:20:53.137Z,59.93
2023-02-13T03:23:22.894Z,59.37
2023-02-13T03:26:00.671Z,59.96
2023-02-13T03:28:51.864Z,60.76
2023-02-13T03:31:42.469Z,59.82
2023-02-13T03:34:20.503Z,59.27
2023-02-13T03:36:56.034Z,60.35
2023-02-13T03:39:28.202Z,60.38
2023-02-13T03:41:58.354Z,60.02
2023-02-13T03:44:34.682Z,60.00
2023-02-13T03:47:05.840Z,60.01
2023-02-13T03:49:38.814Z,60.37
2023-02-13T03:52:50.369Z,60.48
2023-02-13T03:55:28.967Z,59.82
2023-02-13T03:58:03.112Z,59.94
2023-02-13T04:00:38.729Z,59.72
2023-02-13T04:03:28.349Z,59.71
2023-02-13T04:06:04.560Z,59.09
2023-02-13T04:08:31.742Z,59.01
2023-02-13T04:11:18.269Z,59.57
2023-02-13T04:13:59.267Z,59.18
2023-02-13T04:16:34.274Z,59.04
2023-02-13T04:19:02.765Z,59.56
2023-02-13T04:21:36.580Z,58.65
2023-02-13T04:24:04.218Z,58.80
2023-02-13T04:26:43.047Z,58.11
2023-02-13T04:29:10.260Z,58.55
2023-02-13T04:31:37.294Z,58.67
2023-02-13T04:34:04.349Z,57.80
2023-02-13T04:36:31.298Z,57.87
2023-02-13T04:38:58.429Z,57.55
2023-02-13T04:41:25.341Z,58.19
2023-02-13T04:43:52.288Z,57.43
2023-02-13T04:46:19.997Z,58.33
2023-02-13T04:48:47.007Z,56.76
2023-02-13T04:51:13.972Z,57.37
2023-02-13T04:53:41.093Z,57.36
2023-02-13T04:56:08.244Z,57.24
2023-02-13T04:58:35.316Z,56.33
2023-02-13T05:01:02.598Z,55.79
2023-02-13T05:03:29.647Z,55.62
2023-02-13T05:05:56.578Z,55.68
2023-02-13T05:08:23.538Z,55.29
2023-02-13T05:10:50.435Z,55.39
2023-02-13T05:13:17.452Z,55.40
2023-02-13T05:15:44.334Z,54.34
2023-02-13T05:18:11.355Z,54.43
2023-02-13T05:20:38.301Z,54.51
2023-02-13T05:23:05.302Z,53.49
2023-02-13T05:25:34.668Z,53.69
2023-02-13T05:28:01.857Z,53.83
2023-02-13T05:30:28.841Z,53.55
2023-02-13T05:32:56.016Z,52.99
2023-02-13T05:35:23.786Z,53.29
2023-02-13T05:37:50.813Z,52.98
2023-02-13T05:40:17.741Z,53.41
2023-02-13T05:42:44.818Z,53.08
2023-02-13T05:45:11.742Z,52.49
2023-02-13T05:47:40.048Z,52.22
2023-02-13T05:50:07.800Z,52.62
2023-02-13T05:52:34.757Z,51.61
2023-02-13T05:55:01.660Z,52.21
2023-02-13T05:57:28.647Z,52.29
2023-02-13T05:59:55.530Z,51.42
2023-02-13T06:02:22.528Z,52.41
2023-02-13T06:04:49.559Z,52.03
2023-02-13T06:07:16.644Z,51.43
2023-02-13T06:09:43.723Z,50.67
2023-02-13T06:12:10.703Z,50.64
2023-02-13T06:14:37.648Z,50.26
2023-02-13T06:17:04.645Z,50.00
2023-02-13T06:19:31.588Z,51.08
2023-02-13T06:21:58.518Z,50.61
2023-02-13T06:24:25.367Z,49.64
2023-02-13T06:26:52.417Z,49.19
2023-02-13T06:29:19.393Z,48.86
2023-02-13T06:31:46.427Z,47.76
2023-02-13T06:34:13.379Z,46.78
2023-02-13T06:36:40.509Z,45.66
2023-02-13T06:39:07.360Z,45.36
2023-02-13T06:41:34.353Z,45.66
2023-02-13T06:44:01.220Z,44.73
2023-02-13T06:46:28.240Z,43.71
2023-02-13T06:48:55.223Z,42.51
2023-02-13T06:51:22.225Z,42.43
2023-02-13T06:53:49.141Z,40.87
2023-02-13T06:56:16.391Z,40.99
2023-02-13T06:58:43.261Z,40.23
2023-02-13T07:01:10.322Z,39.17
2023-02-13T07:03:37.319Z,37.88
2023-02-13T07:06:04.466Z,37.85
2023-02-13T07:08:31.609Z,36.69
2023-02-13T07:10:58.914Z,37.55
2023-02-13T07:13:25.958Z,37.06
2023-02-13T07:15:53.024Z,38.21
2023-02-13T07:18:19.983Z,38.51
2023-02-13T07:20:46.909Z,39.60
2023-02-13T07:23:13.737Z,40.05
2023-02-13T07:25:40.736Z,40.95
2023-02-13T07:28:07.649Z,40.10
2023-02-13T07:30:35.329Z,39.92
2023-02-13T07:33:03.705Z,39.71
2023-02-13T07:35:31.007Z,40.26
2023-02-13T07:37:57.977Z,40.66
2023-02-13T07:40:25.077Z,40.17
2023-02-13T07:42:51.992Z,40.26
2023-02-13T07:45:20.620Z,39.29
2023-02-13T07:47:48.892Z,39.42
2023-02-13T07:50:16.128Z,38.69
2023-02-13T07:52:43.024Z,39.21
2023-02-13T07:55:13.858Z,38.29
2023-02-13T07:57:40.912Z,39.01
2023-02-13T08:00:08.649Z,38.30
2023-02-13T08:02:38.545Z,38.28
2023-02-13T08:05:06.262Z,38.69
2023-02-13T08:07:33.456Z,38.43
2023-02-13T08:10:01.627Z,36.61
2023-02-13T08:12:28.646Z,35.47
2023-02-13T08:14:55.547Z,35.38
2023-02-13T08:17:22.394Z,34.58
2023-02-13T08:19:49.864Z,35.61
2023-02-13T08:22:16.711Z,35.69
2023-02-13T08:24:43.612Z,36.55
2023-02-13T08:27:14.881Z,35.57
2023-02-13T08:29:41.969Z,36.40
2023-02-13T08:32:09.284Z,36.97
2023-02-13T08:34:36.869Z,36.50
2023-02-13T08:37:04.064Z,38.08
2023-02-13T08:39:31.057Z,38.50
2023-02-13T08:41:58.001Z,37.05
2023-02-13T08:44:25.185Z,38.54
2023-02-13T08:46:52.288Z,37.87
2023-02-13T08:49:19.308Z,38.51
2023-02-13T08:51:46.240Z,38.25
2023-02-13T08:54:13.276Z,38.28
2023-02-13T08:56:42.080Z,38.56
2023-02-13T08:59:09.153Z,39.09
2023-02-13T09:01:36.175Z,39.10
2023-02-13T09:04:03.343Z,39.32
2023-02-13T09:06:30.237Z,39.17
2023-02-13T09:08:57.375Z,39.26
2023-02-13T09:11:24.373Z,38.40
2023-02-13T09:13:54.876Z,39.16
2023-02-13T09:16:22.993Z,38.89
2023-02-13T09:18:51.761Z,38.17
2023-02-13T09:21:20.872Z,37.96
2023-02-13T09:23:47.793Z,38.58
2023-02-13T09:26:16.212Z,38.38
2023-02-13T09:28:43.558Z,38.14
2023-02-13T09:31:13.810Z,37.97
2023-02-13T09:33:41.364Z,39.04
2023-02-13T09:36:12.134Z,38.89
2023-02-13T09:38:39.101Z,38.55
2023-02-13T09:41:12.316Z,38.36
2023-02-13T09:44:03.136Z,38.01
2023-02-13T09:46:34.289Z,37.30
2023-02-13T09:49:16.009Z,37.81
2023-02-13T09:51:45.760Z,38.63
2023-02-13T09:54:16.869Z,37.85
2023-02-13T09:56:58.349Z,37.94
2023-02-13T10:00:10.412Z,38.39
2023-02-13T10:03:06.717Z,38.25
2023-02-13T10:05:42.358Z,38.10
2023-02-13T10:08:18.214Z,38.89
2023-02-13T10:10:45.153Z,39.58
2023-02-13T10:13:43.035Z,39.06
2023-02-13T10:16:16.839Z,38.47
2023-02-13T10:18:55.661Z,38.72
2023-02-13T10:21:29.099Z,38.30
2023-02-13T10:24:14.756Z,38.28
2023-02-13T10:26:44.341Z,38.21
2023-02-13T10:29:37.415Z,37.78
2023-02-13T10:32:09.038Z,37.15
2023-02-13T10:34:43.580Z,37.56
2023-02-13T10:37:19.555Z,37.28
2023-02-13T10:39:50.997Z,37.16
2023-02-13T10:42:51.273Z,37.58
2023-02-13T10:45:27.259Z,37.54
2023-02-13T10:48:31.478Z,38.13
2023-02-13T10:51:23.216Z,38.46
2023-02-13T10:54:15.534Z,38.94
2023-02-13T10:56:42.474Z,38.48
2023-02-13T10:59:31.163Z,39.02
2023-02-13T11:02:09.639Z,39.41
2023-02-13T11:04:36.662Z,39.13
2023-02-13T11:07:11.668Z,39.34
2023-02-13T11:09:43.915Z,39.45
2023-02-13T11:12:28.966Z,39.73
2023-02-13T11:15:11.101Z,40.23
2023-02-13T11:17:41.888Z,39.33
2023-02-13T11:20:29.783Z,40.17
2023-02-13T11:23:15.668Z,40.29
2023-02-13T11:25:56.073Z,40.33
2023-02-13T11:28:23.703Z,39.69
2023-02-13T11:30:50.668Z,40.29
2023-02-13T11:33:17.739Z,40.41
2023-02-13T11:35:46.480Z,39.92
2023-02-13T11:38:16.520Z,40.15
2023-02-13T11:40:46.577Z,40.07
2023-02-13T11:43:35.668Z,40.58
2023-02-13T11:46:22.646Z,40.16
2023-02-13T11:49:04.987Z,41.00
2023-02-13T11:51:59.986Z,41.43
2023-02-13T11:54:32.896Z,41.66
2023-02-13T11:57:05.253Z,41.23
2023-02-13T11:59:41.133Z,41.49
2023-02-13T12:02:19.951Z,41.83
2023-02-13T12:04:49.341Z,41.77
2023-02-13T12:07:21.464Z,41.71
2023-02-13T12:09:54.166Z,41.94
2023-02-13T12:12:42.859Z,42.00
2023-02-13T12:15:26.028Z,43.19
2023-02-13T12:18:16.779Z,42.54
2023-02-13T12:21:06.781Z,43.50
2023-02-13T12:24:11.402Z,44.76
2023-02-13T12:26:44.172Z,44.47
2023-02-13T12:29:45.075Z,44.19
2023-02-13T12:32:28.644Z,45.46
2023-02-13T12:35:32.430Z,45.65
2023-02-13T12:38:17.438Z,45.84
2023-02-13T12:40:59.913Z,46.59
2023-02-13T12:43:52.063Z,46.84
2023-02-13T12:46:39.853Z,47.26
2023-02-13T12:49:22.025Z,46.79
2023-02-13T12:52:26.409Z,47.43
2023-02-13T12:55:17.987Z,47.66
2023-02-13T12:58:06.636Z,48.18
2023-02-13T13:01:01.630Z,47.83
2023-02-13T13:04:06.150Z,48.04
2023-02-13T13:07:08.534Z,48.34
2023-02-13T13:10:21.489Z,49.11
2023-02-13T13:13:06.859Z,48.73
2023-02-13T13:15:56.588Z,50.11
2023-02-13T13:18:29.603Z,50.03
2023-02-13T13:21:05.595Z,50.42
2023-02-13T13:23:43.056Z,50.86
2023-02-13T13:26:35.400Z,50.03
2023-02-13T13:29:06.943Z,50.83
2023-02-13T13:31:36.832Z,51.25
2023-02-13T13:34:13.398Z,51.17
2023-02-13T13:36:54.075Z,51.20
2023-02-13T13:40:00.001Z,50.38
2023-02-13T13:42:41.119Z,51.13
2023-02-13T13:45:47.625Z,51.70
2023-02-13T13:48:38.793Z,52.16
2023-02-13T13:51:08.177Z,52.73
2023-02-13T13:53:35.104Z,53.41
2023-02-13T13:56:04.397Z,53.71
2023-02-13T13:58:41.854Z,53.18
2023-02-13T14:01:15.318Z,53.70
2023-02-13T14:03:50.222Z,53.74
2023-02-13T14:06:24.318Z,53.77
2023-02-13T14:08:59.587Z,53.71
2023-02-13T14:11:29.388Z,54.54
2023-02-13T14:13:56.341Z,54.64
2023-02-13T14:16:42.993Z,54.28
2023-02-13T14:19:33.830Z,55.50
2023-02-13T14:22:19.364Z,54.95
2023-02-13T14:24:54.746Z,54.76
2023-02-13T14:27:31.984Z,54.84
2023-02-13T14:30:01.028Z,55.75
2023-02-13T14:32:33.171Z,55.30
2023-02-13T14:35:05.104Z,54.79
2023-02-13T14:37:38.042Z,55.40
2023-02-13T14:40:17.228Z,55.26
2023-02-13T14:42:51.647Z,54.80
2023-02-13T14:45:27.543Z,55.58
2023-02-13T14:48:09.046Z,56.38
2023-02-13T14:50:52.614Z,56.29
2023-02-13T14:53:25.342Z,56.00
2023-02-13T14:56:14.383Z,55.80
2023-02-13T14:59:15.353Z,55.81
2023-02-13T15:01:53.066Z,56.85
2023-02-13T15:04:32.027Z,55.82
2023-02-13T15:07:02.131Z,56.68
2023-02-13T15:09:28.966Z,56.32
2023-02-13T15:11:55.989Z,56.77
2023-02-13T15:14:33.098Z,57.40
2023-02-13T15:17:17.563Z,57.93
2023-02-13T15:19:47.651Z,57.10
2023-02-13T15:22:41.889Z,58.01
2023-02-13T15:25:09.596Z,57.93
2023-02-13T15:27:43.429Z,58.09
2023-02-13T15:30:26.158Z,58.03
2023-02-13T15:33:02.977Z,58.38
2023-02-13T15:35:35.724Z,58.43
2023-02-13T15:38:28.640Z,58.88
2023-02-13T15:41:03.155Z,58.85
2023-02-13T15:43:43.573Z,58.67
2023-02-13T15:46:27.574Z,59.34
2023-02-13T15:48:56.812Z,58.22
2023-02-13T15:51:27.185Z,58.94
2023-02-13T15:54:00.054Z,59.10
2023-02-13T15:56:27.743Z,59.41
2023-02-13T15:58:56.337Z,60.06
2023-02-13T16:01:24.117Z,59.00
2023-02-13T16:04:02.645Z,59.03
2023-02-13T16:06:30.794Z,59.37
2023-02-13T16:08:59.654Z,59.55
2023-02-13T16:11:34.830Z,60.15
2023-02-13T16:14:07.720Z,60.58
2023-02-13T16:16:49.180Z,59.99
2023-02-13T16:19:25.590Z,60.05
2023-02-13T16:21:54.574Z,59.93
2023-02-13T16:24:22.134Z,59.68
2023-02-13T16:26:50.361Z,59.94
2023-02-13T16:29:23.772Z,59.42
2023-02-13T16:31:52.138Z,60.37
2023-02-13T16:34:27.059Z,60.51
2023-02-13T16:36:56.017Z,60.71
2023-02-13T16:39:27.279Z,61.22
2023-02-13T16:41:54.517Z,61.55
2023-02-13T16:44:24.091Z,60.87
2023-02-13T16:46:57.346Z,60.99
2023-02-13T16:49:27.708Z,60.89
2023-02-13T16:51:56.836Z,60.77
2023-02-13T16:54:31.975Z,61.22
2023-02-13T16:57:04.913Z,61.83
2023-02-13T16:59:47.034Z,61.66
2023-02-13T17:02:22.408Z,62.16
2023-02-13T17:05:09.110Z,62.73
2023-02-13T17:07:47.790Z,63.33
2023-02-13T17:10:17.711Z,62.61
2023-02-13T17:12:45.688Z,63.28
2023-02-13T17:15:14.816Z,63.82
2023-02-13T17:17:41.939Z,64.15
2023-02-13T17:20:17.291Z,64.41
2023-02-13T17:22:47.077Z,65.13
2023-02-13T17:25:20.201Z,65.30
2023-02-13T17:27:49.204Z,65.86
2023-02-13T17:30:25.102Z,66.14
2023-02-13T17:32:59.959Z,66.37
2023-02-13T17:35:27.102Z,65.55
2023-02-13T17:37:54.504Z,66.70
2023-02-13T17:40:23.513Z,66.47
2023-02-13T17:42:53.239Z,67.83
2023-02-13T17:45:23.326Z,67.23
2023-02-13T17:47:50.265Z,67.13
2023-02-13T17:50:17.346Z,66.41
2023-02-13T17:52:46.054Z,66.87
2023-02-13T17:55:22.459Z,67.66
2023-02-13T17:57:49.644Z,67.01
2023-02-13T18:00:17.724Z,67.31
2023-02-13T18:02:47.089Z,66.57
2023-02-13T18:05:15.292Z,67.08
2023-02-13T18:07:43.595Z,66.79
2023-02-13T18:10:15.267Z,67.30
2023-02-13T18:12:43.708Z,67.89
2023-02-13T18:15:11.311Z,68.02
2023-02-13T18:17:38.736Z,69.42
2023-02-13T18:20:07.405Z,68.57
2023-02-13T18:22:34.461Z,68.66
2023-02-13T18:25:02.136Z,67.57
2023-02-13T18:27:29.077Z,68.59
2023-02-13T18:29:56.302Z,67.83
2023-02-13T18:32:23.726Z,68.59
2023-02-13T18:34:50.966Z,67.65
2023-02-13T18:37:18.867Z,67.54
2023-02-13T18:39:45.965Z,67.88
2023-02-13T18:42:13.516Z,68.07
2023-02-13T18:44:41.198Z,67.52
2023-02-13T18:47:08.433Z,68.15
2023-02-13T18:49:36.184Z,67.40
2023-02-13T18:52:04.353Z,67.58
2023-02-13T18:54:31.444Z,67.69
2023-02-13T18:56:58.462Z,68.28
2023-02-13T18:59:25.452Z,67.74
2023-02-13T19:01:52.513Z,67.95
2023-02-13T19:04:19.486Z,68.55
2023-02-13T19:06:46.455Z,68.31
2023-02-13T19:09:13.640Z,68.42
2023-02-13T19:11:40.693Z,67.72
2023-02-13T19:14:07.985Z,68.71
2023-02-13T19:16:35.899Z,68.31
2023-02-13T19:19:06.490Z,68.18
2023-02-13T19:21:36.565Z,68.32
2023-02-13T19:24:07.992Z,68.25
2023-02-13T19:26:35.042Z,69.23
2023-02-13T19:29:02.014Z,68.53
2023-02-13T19:31:31.550Z,69.04
2023-02-13T19:33:58.510Z,68.84
2023-02-13T19:36:27.290Z,68.05
2023-02-13T19:39:01.106Z,68.65
2023-02-13T19:41:28.170Z,67.83
2023-02-13T19:43:55.705Z,69.00
2023-02-13T19:46:28.393Z,68.17
2023-02-13T19:48:56.444Z,68.51
2023-02-13T19:51:28.770Z,67.88
2023-02-13T19:54:06.796Z,68.71
2023-02-13T19:56:36.619Z,67.98
2023-02-13T19:59:05.340Z,68.33
2023-02-13T20:01:32.333Z,68.08
2023-02-13T20:03:59.530Z,68.40
2023-02-13T20:06:33.532Z,68.72
2023-02-13T20:09:04.364Z,67.88
2023-02-13T20:11:31.216Z,67.78
2023-02-13T20:13:59.372Z,68.04
2023-02-13T20:16:27.053Z,68.28
2023-02-13T20:18:53.915Z,67.69
2023-02-13T20:21:21.169Z,68.69
2023-02-13T20:23:50.456Z,67.80
2023-02-13T20:26:18.341Z,67.99
2023-02-13T20:28:47.181Z,67.65
2023-02-13T20:31:17.100Z,68.47
2023-02-13T20:33:45.180Z,68.63
2023-02-13T20:36:13.350Z,68.29
2023-02-13T20:38:40.731Z,68.97
2023-02-13T20:41:16.062Z,67.73
2023-02-13T20:43:43.296Z,67.38
2023-02-13T20:46:10.739Z,68.36
2023-02-13T20:48:40.285Z,68.40
2023-02-13T20:51:10.157Z,68.26
2023-02-13T20:53:38.051Z,68.07
2023-02-13T20:56:09.000Z,69.03
2023-02-13T20:58:36.415Z,68.54
2023-02-13T21:01:10.359Z,68.95
2023-02-13T21:03:37.682Z,68.21
2023-02-13T21:06:05.294Z,68.60
2023-02-13T21:08:32.218Z,68.76
2023-02-13T21:11:07.053Z,68.66
2023-02-13T21:13:35.338Z,68.12
2023-02-13T21:16:11.099Z,68.48
2023-02-13T21:18:40.029Z,69.16
2023-02-13T21:21:09.147Z,69.00
2023-02-13T21:23:36.898Z,68.83
2023-02-13T21:26:12.685Z,69.36
2023-02-13T21:28:40.815Z,69.07
2023-02-13T21:31:14.122Z,69.18
2023-02-13T21:33:41.451Z,68.06
2023-02-13T21:36:10.478Z,68.28
2023-02-13T21:38:38.910Z,68.09
2023-02-13T21:41:06.501Z,68.75
2023-02-13T21:43:33.507Z,67.68
2023-02-13T21:46:12.243Z,69.18
2023-02-13T21:48:40.640Z,69.38
2023-02-13T21:51:16.806Z,69.17
2023-02-13T21:53:45.271Z,68.40
2023-02-13T21:56:18.235Z,68.54
2023-02-13T21:58:47.018Z,68.56
2023-02-13T22:01:26.842Z,68.40
2023-02-13T22:03:59.800Z,69.01
2023-02-13T22:06:28.829Z,68.43
2023-02-13T22:09:16.695Z,68.09
2023-02-13T22:11:43.783Z,68.42
2023-02-13T22:14:16.235Z,69.02
2023-02-13T22:16:44.391Z,69.37
2023-02-13T22:19:14.135Z,69.01
2023-02-13T22:21:41.328Z,70.09
2023-02-13T22:24:08.714Z,69.19
2023-02-13T22:26:38.221Z,68.88
2023-02-13T22:29:07.809Z,68.58
2023-02-13T22:31:35.359Z,68.78
2023-02-13T22:34:05.367Z,68.20
2023-02-13T22:36:37.421Z,68.72
2023-02-13T22:39:04.933Z,67.68
2023-02-13T22:41:31.783Z,68.39
2023-02-13T22:43:58.783Z,68.17
2023-02-13T22:46:30.971Z,68.55
2023-02-13T22:48:59.135Z,67.60
2023-02-13T22:51:34.872Z,68.00
2023-02-13T22:54:02.668Z,67.80
2023-02-13T22:56:30.757Z,68.16
2023-02-13T22:58:58.566Z,68.42
2023-02-13T23:01:27.622Z,68.19
2023-02-13T23:03:55.943Z,68.80
2023-02-13T23:06:24.302Z,68.13
2023-02-13T23:08:51.879Z,67.85
2023-02-13T23:11:20.166Z,68.25
2023-02-13T23:13:48.397Z,67.79
2023-02-13T23:16:15.919Z,68.58
2023-02-13T23:18:43.818Z,68.15
2023-02-13T23:21:11.186Z,68.00
2023-02-13T23:23:38.651Z,68.36
2023-02-13T23:26:07.492Z,68.35
2023-02-13T23:28:35.458Z,68.26
2023-02-13T23:31:04.023Z,67.19
2023-02-13T23:33:31.774Z,67.56
2023-02-13T23:35:58.787Z,67.76
2023-02-13T23:38:25.909Z,67.83
2023-02-13T23:40:52.834Z,67.26
2023-02-13T23:43:19.730Z,67.09
2023-02-13T23:45:46.722Z,67.09
2023-02-13T23:48:13.702Z,66.42
2023-02-13T23:50:41.464Z,67.04
2023-02-13T23:53:08.435Z,66.55
2023-02-13T23:55:35.400Z,66.51
2023-02-13T23:58:02.402Z,66.27
